sensor_id;sensor_type;location;lat;lon;timestamp;pressure;altitude;pressure_sealevel;temperature;humidity
43312;BME280;30041;48.300;16.352;2023-07-24T00:01:36;99292.34;;;25.88;48.61
43312;BME280;30041;48.300;16.352;2023-07-24T00:04:02;99292.59;;;25.86;48.69
43312;BME280;30041;48.300;16.352;2023-07-24T00:06:27;99293.41;;;25.87;49.00
43312;BME280;30041;48.300;16.352;2023-07-24T00:08:52;99296.41;;;25.85;48.92
43312;BME280;30041;48.300;16.352;2023-07-24T00:11:17;99293.69;;;25.85;48.88
43312;BME280;30041;48.300;16.352;2023-07-24T00:13:43;99297.47;;;25.84;49.12
43312;BME280;30041;48.300;16.352;2023-07-24T00:16:09;99296.94;;;25.82;49.23
43312;BME280;30041;48.300;16.352;2023-07-24T00:18:34;99293.97;;;25.84;49.20
43312;BME280;30041;48.300;16.352;2023-07-24T00:21:00;99281.47;;;25.83;49.23
43312;BME280;30041;48.300;16.352;2023-07-24T00:23:25;99294.22;;;25.82;49.16
43312;BME280;30041;48.300;16.352;2023-07-24T00:25:50;99284.16;;;25.83;49.11
43312;BME280;30041;48.300;16.352;2023-07-24T00:28:15;99272.25;;;25.84;49.29
43312;BME280;30041;48.300;16.352;2023-07-24T00:30:41;99279.84;;;25.82;49.14
43312;BME280;30041;48.300;16.352;2023-07-24T00:33:07;99295.31;;;25.81;49.28
43312;BME280;30041;48.300;16.352;2023-07-24T00:35:32;99273.63;;;25.81;49.40
43312;BME280;30041;48.300;16.352;2023-07-24T00:37:57;99279.31;;;25.80;49.19
43312;BME280;30041;48.300;16.352;2023-07-24T00:40:23;99282.03;;;25.80;49.23
43312;BME280;30041;48.300;16.352;2023-07-24T00:42:48;99273.63;;;25.81;49.07
43312;BME280;30041;48.300;16.352;2023-07-24T00:45:13;99273.88;;;25.80;49.22
43312;BME280;30041;48.300;16.352;2023-07-24T00:47:39;99271.72;;;25.77;49.16
43312;BME280;30041;48.300;16.352;2023-07-24T00:50:04;99270.88;;;25.76;49.13
43312;BME280;30041;48.300;16.352;2023-07-24T00:52:30;99263.84;;;25.75;49.03
43312;BME280;30041;48.300;16.352;2023-07-24T00:54:55;99262.75;;;25.76;48.95
43312;BME280;30041;48.300;16.352;2023-07-24T00:57:20;99263.84;;;25.75;49.19
43312;BME280;30041;48.300;16.352;2023-07-24T00:59:46;99263.03;;;25.75;49.17
43312;BME280;30041;48.300;16.352;2023-07-24T01:02:11;99263.84;;;25.75;48.96
43312;BME280;30041;48.300;16.352;2023-07-24T01:04:37;99266.81;;;25.74;49.10
43312;BME280;30041;48.300;16.352;2023-07-24T01:07:02;99270.34;;;25.74;49.08
43312;BME280;30041;48.300;16.352;2023-07-24T01:09:27;99273.06;;;25.74;49.13
43312;BME280;30041;48.300;16.352;2023-07-24T01:12:01;99269.00;;;25.72;48.93
43312;BME280;30041;48.300;16.352;2023-07-24T01:14:44;99267.94;;;25.73;49.20
43312;BME280;30041;48.300;16.352;2023-07-24T01:17:12;99271.44;;;25.73;49.32
43312;BME280;30041;48.300;16.352;2023-07-24T01:19:42;99266.28;;;25.72;48.96
43312;BME280;30041;48.300;16.352;2023-07-24T01:24:36;99261.69;;;25.72;49.00
43312;BME280;30041;48.300;16.352;2023-07-24T01:27:01;99257.34;;;25.71;49.00
43312;BME280;30041;48.300;16.352;2023-07-24T01:29:27;99263.88;;;25.70;48.94
43312;BME280;30041;48.300;16.352;2023-07-24T01:31:52;99258.69;;;25.68;48.99
43312;BME280;30041;48.300;16.352;2023-07-24T01:34:17;99261.41;;;25.68;48.87
43312;BME280;30041;48.300;16.352;2023-07-24T01:36:42;99256.25;;;25.67;48.76
43312;BME280;30041;48.300;16.352;2023-07-24T01:39:08;99256.78;;;25.69;48.87
43312;BME280;30041;48.300;16.352;2023-07-24T01:41:34;99258.44;;;25.70;48.78
43312;BME280;30041;48.300;16.352;2023-07-24T01:43:59;99260.88;;;25.66;48.83
43312;BME280;30041;48.300;16.352;2023-07-24T01:46:25;99261.16;;;25.70;48.61
43312;BME280;30041;48.300;16.352;2023-07-24T01:48:50;99254.91;;;25.64;48.70
43312;BME280;30041;48.300;16.352;2023-07-24T01:51:15;99260.06;;;25.66;48.69
43312;BME280;30041;48.300;16.352;2023-07-24T01:53:40;99254.91;;;25.64;48.83
43312;BME280;30041;48.300;16.352;2023-07-24T01:56:06;99256.00;;;25.63;48.60
43312;BME280;30041;48.300;16.352;2023-07-24T01:58:31;99250.28;;;25.65;48.64
43312;BME280;30041;48.300;16.352;2023-07-24T02:00:56;99247.31;;;25.66;48.82
43312;BME280;30041;48.300;16.352;2023-07-24T02:03:21;99249.22;;;25.66;48.72
43312;BME280;30041;48.300;16.352;2023-07-24T02:05:50;99244.31;;;25.68;48.54
43312;BME280;30041;48.300;16.352;2023-07-24T02:08:15;99246.50;;;25.66;48.61
43312;BME280;30041;48.300;16.352;2023-07-24T02:10:40;99235.91;;;25.64;48.52
43312;BME280;30041;48.300;16.352;2023-07-24T02:13:05;99242.16;;;25.65;48.56
43312;BME280;30041;48.300;16.352;2023-07-24T02:15:31;99231.84;;;25.62;48.45
43312;BME280;30041;48.300;16.352;2023-07-24T02:17:56;99231.28;;;25.65;48.30
43312;BME280;30041;48.300;16.352;2023-07-24T02:20:21;99238.09;;;25.62;48.29
43312;BME280;30041;48.300;16.352;2023-07-24T02:22:46;99234.56;;;25.62;48.26
43312;BME280;30041;48.300;16.352;2023-07-24T02:25:12;99238.09;;;25.62;48.11
43312;BME280;30041;48.300;16.352;2023-07-24T02:27:37;99225.63;;;25.61;48.17
43312;BME280;30041;48.300;16.352;2023-07-24T02:30:02;99232.38;;;25.64;48.00
43312;BME280;30041;48.300;16.352;2023-07-24T02:32:28;99221.81;;;25.62;48.00
43312;BME280;30041;48.300;16.352;2023-07-24T02:34:53;99215.84;;;25.60;48.00
43312;BME280;30041;48.300;16.352;2023-07-24T02:37:18;99216.09;;;25.64;47.95
43312;BME280;30041;48.300;16.352;2023-07-24T02:39:44;99218.28;;;25.62;47.86
43312;BME280;30041;48.300;16.352;2023-07-24T02:42:09;99216.38;;;25.62;47.93
43312;BME280;30041;48.300;16.352;2023-07-24T02:44:35;99222.91;;;25.61;48.22
43312;BME280;30041;48.300;16.352;2023-07-24T02:47:00;99226.16;;;25.63;47.92
43312;BME280;30041;48.300;16.352;2023-07-24T02:49:25;99224.81;;;25.61;47.93
43312;BME280;30041;48.300;16.352;2023-07-24T02:51:51;99222.63;;;25.58;48.26
43312;BME280;30041;48.300;16.352;2023-07-24T02:54:16;99228.31;;;25.61;48.05
43312;BME280;30041;48.300;16.352;2023-07-24T02:56:41;99220.47;;;25.60;48.01
43312;BME280;30041;48.300;16.352;2023-07-24T02:59:06;99219.09;;;25.62;47.97
43312;BME280;30041;48.300;16.352;2023-07-24T03:01:32;99217.75;;;25.60;47.82
43312;BME280;30041;48.300;16.352;2023-07-24T03:03:57;99213.97;;;25.61;48.15
43312;BME280;30041;48.300;16.352;2023-07-24T03:06:22;99207.69;;;25.60;47.94
43312;BME280;30041;48.300;16.352;2023-07-24T03:08:47;99208.53;;;25.61;47.91
43312;BME280;30041;48.300;16.352;2023-07-24T03:11:13;99210.13;;;25.62;47.92
43312;BME280;30041;48.300;16.352;2023-07-24T03:13:38;99211.50;;;25.59;48.04
43312;BME280;30041;48.300;16.352;2023-07-24T03:16:03;99210.16;;;25.57;48.09
43312;BME280;30041;48.300;16.352;2023-07-24T03:18:29;99212.59;;;25.58;48.05
43312;BME280;30041;48.300;16.352;2023-07-24T03:20:54;99210.16;;;25.57;48.15
43312;BME280;30041;48.300;16.352;2023-07-24T03:23:22;99211.78;;;25.53;48.10
43312;BME280;30041;48.300;16.352;2023-07-24T03:25:47;99199.56;;;25.55;48.03
43312;BME280;30041;48.300;16.352;2023-07-24T03:28:12;99206.34;;;25.58;47.95
43312;BME280;30041;48.300;16.352;2023-07-24T03:30:37;99202.81;;;25.57;47.87
43312;BME280;30041;48.300;16.352;2023-07-24T03:33:03;99206.63;;;25.56;48.11
43312;BME280;30041;48.300;16.352;2023-07-24T03:35:28;99199.34;;;24.80;49.85
43312;BME280;30041;48.300;16.352;2023-07-24T03:37:54;99196.81;;;24.37;51.06
43312;BME280;30041;48.300;16.352;2023-07-24T03:40:19;99196.19;;;24.10;51.80
43312;BME280;30041;48.300;16.352;2023-07-24T03:42:44;99199.63;;;23.90;52.38
43312;BME280;30041;48.300;16.352;2023-07-24T03:45:09;99202.59;;;23.83;52.88
43312;BME280;30041;48.300;16.352;2023-07-24T03:47:35;99200.94;;;23.82;52.74
43312;BME280;30041;48.300;16.352;2023-07-24T03:50:00;99201.13;;;23.65;53.18
43312;BME280;30041;48.300;16.352;2023-07-24T03:52:25;99205.44;;;23.66;53.21
43312;BME280;30041;48.300;16.352;2023-07-24T03:54:51;99203.25;;;23.58;53.73
43312;BME280;30041;48.300;16.352;2023-07-24T03:57:16;99211.03;;;23.49;53.78
43312;BME280;30041;48.300;16.352;2023-07-24T03:59:42;99203.41;;;23.41;54.01
43312;BME280;30041;48.300;16.352;2023-07-24T04:02:07;99209.16;;;23.50;53.83
43312;BME280;30041;48.300;16.352;2023-07-24T04:04:32;99205.34;;;23.51;53.12
43312;BME280;30041;48.300;16.352;2023-07-24T04:06:57;99201.03;;;23.50;52.79
43312;BME280;30041;48.300;16.352;2023-07-24T04:09:23;99204.78;;;23.44;53.25
43312;BME280;30041;48.300;16.352;2023-07-24T04:11:48;99200.25;;;23.59;52.93
43312;BME280;30041;48.300;16.352;2023-07-24T04:14:13;99205.38;;;24.03;51.43
43312;BME280;30041;48.300;16.352;2023-07-24T04:16:38;99201.41;;;24.42;50.35
43312;BME280;30041;48.300;16.352;2023-07-24T04:19:04;99199.88;;;24.67;49.77
43312;BME280;30041;48.300;16.352;2023-07-24T04:21:29;99198.53;;;24.84;49.39
43312;BME280;30041;48.300;16.352;2023-07-24T04:23:54;99192.84;;;24.96;49.23
43312;BME280;30041;48.300;16.352;2023-07-24T04:26:20;99195.81;;;25.05;49.05
43312;BME280;30041;48.300;16.352;2023-07-24T04:28:45;99202.06;;;25.11;48.85
43312;BME280;30041;48.300;16.352;2023-07-24T04:31:10;99203.38;;;25.18;48.40
43312;BME280;30041;48.300;16.352;2023-07-24T04:33:35;99205.06;;;25.24;48.54
43312;BME280;30041;48.300;16.352;2023-07-24T04:36:00;99211.25;;;24.63;51.93
43312;BME280;30041;48.300;16.352;2023-07-24T04:38:26;99207.03;;;24.05;54.26
43312;BME280;30041;48.300;16.352;2023-07-24T04:40:51;99195.28;;;23.89;54.92
43312;BME280;30041;48.300;16.352;2023-07-24T04:43:16;99196.06;;;23.79;55.53
43312;BME280;30041;48.300;16.352;2023-07-24T04:45:42;99203.03;;;23.70;56.10
43312;BME280;30041;48.300;16.352;2023-07-24T04:48:07;99207.56;;;23.59;56.68
43312;BME280;30041;48.300;16.352;2023-07-24T04:50:32;99200.81;;;23.61;56.72
43312;BME280;30041;48.300;16.352;2023-07-24T04:52:57;99201.09;;;23.60;56.84
43312;BME280;30041;48.300;16.352;2023-07-24T04:55:23;99197.31;;;23.66;56.55
43312;BME280;30041;48.300;16.352;2023-07-24T04:57:48;99195.97;;;23.69;56.59
43312;BME280;30041;48.300;16.352;2023-07-24T05:00:13;99201.06;;;24.02;55.28
43312;BME280;30041;48.300;16.352;2023-07-24T05:02:39;99198.41;;;24.28;54.27
43312;BME280;30041;48.300;16.352;2023-07-24T05:05:04;99204.94;;;24.42;53.40
43312;BME280;30041;48.300;16.352;2023-07-24T05:07:29;99199.59;;;24.53;53.23
43312;BME280;30041;48.300;16.352;2023-07-24T05:09:55;99195.53;;;24.55;55.02
43312;BME280;30041;48.300;16.352;2023-07-24T05:12:20;99193.34;;;24.52;56.00
43312;BME280;30041;48.300;16.352;2023-07-24T05:14:45;99196.28;;;24.45;55.87
43312;BME280;30041;48.300;16.352;2023-07-24T05:17:11;99194.38;;;24.41;55.60
43312;BME280;30041;48.300;16.352;2023-07-24T05:19:36;99206.84;;;24.42;55.36
43312;BME280;30041;48.300;16.352;2023-07-24T05:22:01;99201.41;;;24.42;55.63
43312;BME280;30041;48.300;16.352;2023-07-24T05:24:26;99208.50;;;24.48;55.06
43312;BME280;30041;48.300;16.352;2023-07-24T05:26:52;99203.66;;;24.55;54.21
43312;BME280;30041;48.300;16.352;2023-07-24T05:29:17;99209.31;;;24.49;54.24
43312;BME280;30041;48.300;16.352;2023-07-24T05:31:42;99210.97;;;24.50;53.81
43312;BME280;30041;48.300;16.352;2023-07-24T05:34:08;99203.38;;;24.52;53.98
43312;BME280;30041;48.300;16.352;2023-07-24T05:36:33;99204.72;;;24.49;54.34
43312;BME280;30041;48.300;16.352;2023-07-24T05:38:59;99199.88;;;24.56;53.64
43312;BME280;30041;48.300;16.352;2023-07-24T05:41:24;99200.69;;;24.62;53.32
43312;BME280;30041;48.300;16.352;2023-07-24T05:43:49;99199.06;;;24.66;53.16
43312;BME280;30041;48.300;16.352;2023-07-24T05:46:15;99199.88;;;24.67;52.86
43312;BME280;30041;48.300;16.352;2023-07-24T05:48:40;99193.94;;;24.70;52.68
43312;BME280;30041;48.300;16.352;2023-07-24T05:51:06;99197.19;;;24.72;52.80
43312;BME280;30041;48.300;16.352;2023-07-24T05:53:31;99194.19;;;24.73;52.72
43312;BME280;30041;48.300;16.352;2023-07-24T05:56:01;99196.91;;;24.73;52.38
43312;BME280;30041;48.300;16.352;2023-07-24T05:58:26;99199.09;;;24.76;52.57
43312;BME280;30041;48.300;16.352;2023-07-24T06:00:52;99194.47;;;24.77;52.58
43312;BME280;30041;48.300;16.352;2023-07-24T06:03:18;99198.53;;;24.79;52.19
43312;BME280;30041;48.300;16.352;2023-07-24T06:05:43;99198.53;;;24.79;52.46
43312;BME280;30041;48.300;16.352;2023-07-24T06:08:08;99192.84;;;24.81;52.39
43312;BME280;30041;48.300;16.352;2023-07-24T06:10:34;99185.25;;;24.83;52.52
43312;BME280;30041;48.300;16.352;2023-07-24T06:13:00;99184.16;;;24.84;52.27
43312;BME280;30041;48.300;16.352;2023-07-24T06:15:25;99183.09;;;24.85;52.40
43312;BME280;30041;48.300;16.352;2023-07-24T06:17:50;99179.84;;;24.88;51.99
43312;BME280;30041;48.300;16.352;2023-07-24T06:20:16;99176.88;;;24.90;52.27
43312;BME280;30041;48.300;16.352;2023-07-24T06:22:42;99166.03;;;24.90;51.99
43312;BME280;30041;48.300;16.352;2023-07-24T06:25:07;99169.28;;;24.92;51.96
43312;BME280;30041;48.300;16.352;2023-07-24T06:27:33;99160.31;;;24.91;51.69
43312;BME280;30041;48.300;16.352;2023-07-24T06:29:58;99150.31;;;24.92;51.64
43312;BME280;30041;48.300;16.352;2023-07-24T06:32:24;99148.94;;;24.94;51.68
43312;BME280;30041;48.300;16.352;2023-07-24T06:34:49;99144.06;;;24.96;51.71
43312;BME280;30041;48.300;16.352;2023-07-24T06:37:14;99142.16;;;24.97;51.56
43312;BME280;30041;48.300;16.352;2023-07-24T06:39:40;99136.72;;;24.97;51.66
43312;BME280;30041;48.300;16.352;2023-07-24T06:42:05;99134.56;;;24.99;51.61
43312;BME280;30041;48.300;16.352;2023-07-24T06:44:31;99138.63;;;25.01;51.08
43312;BME280;30041;48.300;16.352;2023-07-24T06:46:56;99138.63;;;25.01;51.58
43312;BME280;30041;48.300;16.352;2023-07-24T06:49:22;99151.09;;;25.02;51.18
43312;BME280;30041;48.300;16.352;2023-07-24T06:51:47;99147.00;;;25.05;51.16
43312;BME280;30041;48.300;16.352;2023-07-24T06:54:13;99142.41;;;25.05;51.27
43312;BME280;30041;48.300;16.352;2023-07-24T06:56:38;99136.16;;;25.05;51.27
43312;BME280;30041;48.300;16.352;2023-07-24T06:59:04;99139.72;;;25.05;51.03
43312;BME280;30041;48.300;16.352;2023-07-24T07:01:29;99128.88;;;25.05;51.06
43312;BME280;30041;48.300;16.352;2023-07-24T07:03:54;99120.72;;;25.05;51.02
43312;BME280;30041;48.300;16.352;2023-07-24T07:06:20;99122.34;;;25.06;50.82
43312;BME280;30041;48.300;16.352;2023-07-24T07:08:45;99114.75;;;25.09;50.85
43312;BME280;30041;48.300;16.352;2023-07-24T07:11:11;99107.41;;;25.09;50.76
43312;BME280;30041;48.300;16.352;2023-07-24T07:13:36;99104.72;;;25.09;50.64
43312;BME280;30041;48.300;16.352;2023-07-24T07:16:02;99098.22;;;25.10;50.66
43312;BME280;30041;48.300;16.352;2023-07-24T07:18:27;99092.78;;;25.10;50.65
43312;BME280;30041;48.300;16.352;2023-07-24T07:20:53;99097.91;;;25.12;50.70
43312;BME280;30041;48.300;16.352;2023-07-24T07:23:20;99089.53;;;25.13;50.64
43312;BME280;30041;48.300;16.352;2023-07-24T07:25:46;99099.03;;;25.11;50.62
43312;BME280;30041;48.300;16.352;2023-07-24T07:28:14;99086.00;;;25.13;50.35
43312;BME280;30041;48.300;16.352;2023-07-24T07:30:41;99081.66;;;25.12;50.55
43312;BME280;30041;48.300;16.352;2023-07-24T07:33:07;99081.38;;;25.13;50.58
43312;BME280;30041;48.300;16.352;2023-07-24T07:35:36;99084.09;;;25.13;50.58
43312;BME280;30041;48.300;16.352;2023-07-24T07:38:02;99083.81;;;25.15;50.59
43312;BME280;30041;48.300;16.352;2023-07-24T07:40:28;99085.44;;;25.16;50.65
43312;BME280;30041;48.300;16.352;2023-07-24T07:42:54;99081.91;;;25.15;50.30
43312;BME280;30041;48.300;16.352;2023-07-24T07:45:20;99080.31;;;25.14;50.50
43312;BME280;30041;48.300;16.352;2023-07-24T07:47:45;99067.81;;;25.13;50.44
43312;BME280;30041;48.300;16.352;2023-07-24T07:50:11;99075.69;;;25.15;50.46
43312;BME280;30041;48.300;16.352;2023-07-24T07:52:37;99061.03;;;25.16;50.80
43312;BME280;30041;48.300;16.352;2023-07-24T07:55:02;99059.16;;;25.16;50.66
43312;BME280;30041;48.300;16.352;2023-07-24T07:57:28;99057.25;;;25.17;50.54
43312;BME280;30041;48.300;16.352;2023-07-24T07:59:53;99049.94;;;25.17;50.54
43312;BME280;30041;48.300;16.352;2023-07-24T08:02:19;99051.84;;;25.17;50.87
43312;BME280;30041;48.300;16.352;2023-07-24T08:04:44;99035.56;;;25.17;50.66
43312;BME280;30041;48.300;16.352;2023-07-24T08:07:10;99039.88;;;25.18;50.63
43312;BME280;30041;48.300;16.352;2023-07-24T08:09:35;99033.41;;;25.19;50.51
43312;BME280;30041;48.300;16.352;2023-07-24T08:12:01;99032.31;;;25.20;50.92
43312;BME280;30041;48.300;16.352;2023-07-24T08:14:26;99034.22;;;25.19;50.61
43312;BME280;30041;48.300;16.352;2023-07-24T08:16:52;99026.09;;;25.19;50.99
43312;BME280;30041;48.300;16.352;2023-07-24T08:19:17;99023.38;;;25.19;50.94
43312;BME280;30041;48.300;16.352;2023-07-24T08:21:43;99022.00;;;25.22;51.35
43312;BME280;30041;48.300;16.352;2023-07-24T08:24:08;99017.38;;;25.22;50.69
43312;BME280;30041;48.300;16.352;2023-07-24T08:26:33;99010.34;;;25.21;50.90
43312;BME280;30041;48.300;16.352;2023-07-24T08:28:59;99005.72;;;25.22;51.18
43312;BME280;30041;48.300;16.352;2023-07-24T08:31:24;99007.38;;;25.23;51.04
43312;BME280;30041;48.300;16.352;2023-07-24T08:33:50;99010.09;;;25.23;50.77
43312;BME280;30041;48.300;16.352;2023-07-24T08:36:15;99009.25;;;25.22;50.95
43312;BME280;30041;48.300;16.352;2023-07-24T08:38:41;99010.09;;;25.23;51.10
43312;BME280;30041;48.300;16.352;2023-07-24T08:41:13;99015.50;;;25.23;51.16
43312;BME280;30041;48.300;16.352;2023-07-24T08:43:41;99021.44;;;25.25;51.23
43312;BME280;30041;48.300;16.352;2023-07-24T08:46:07;99013.31;;;25.25;51.14
43312;BME280;30041;48.300;16.352;2023-07-24T08:48:38;99020.38;;;25.26;51.26
43312;BME280;30041;48.300;16.352;2023-07-24T08:51:04;99026.59;;;25.26;50.88
43312;BME280;30041;48.300;16.352;2023-07-24T08:53:32;99029.03;;;25.28;51.41
43312;BME280;30041;48.300;16.352;2023-07-24T08:55:59;99028.47;;;25.31;51.80
43312;BME280;30041;48.300;16.352;2023-07-24T08:58:24;99027.41;;;25.32;51.73
43312;BME280;30041;48.300;16.352;2023-07-24T09:00:50;99020.88;;;25.33;51.35
43312;BME280;30041;48.300;16.352;2023-07-24T09:03:16;99028.19;;;25.33;51.62
43312;BME280;30041;48.300;16.352;2023-07-24T09:05:41;99015.44;;;25.33;51.71
43312;BME280;30041;48.300;16.352;2023-07-24T09:08:06;99005.94;;;25.36;51.86
43312;BME280;30041;48.300;16.352;2023-07-24T09:10:32;98994.53;;;25.39;51.65
43312;BME280;30041;48.300;16.352;2023-07-24T09:12:57;99001.31;;;25.41;52.12
43312;BME280;30041;48.300;16.352;2023-07-24T09:15:23;99007.28;;;25.43;52.16
43312;BME280;30041;48.300;16.352;2023-07-24T09:17:52;99008.63;;;25.46;52.58
43312;BME280;30041;48.300;16.352;2023-07-24T09:20:19;98989.09;;;25.44;51.88
43312;BME280;30041;48.300;16.352;2023-07-24T09:22:54;98991.00;;;25.43;52.19
43312;BME280;30041;48.300;16.352;2023-07-24T09:25:35;98988.56;;;25.42;52.49
43312;BME280;30041;48.300;16.352;2023-07-24T09:28:12;98986.09;;;25.40;52.74
43312;BME280;30041;48.300;16.352;2023-07-24T09:30:38;98976.63;;;25.38;52.61
43312;BME280;30041;48.300;16.352;2023-07-24T09:33:03;98971.22;;;25.38;52.53
43312;BME280;30041;48.300;16.352;2023-07-24T09:35:29;98962.00;;;25.39;52.26
43312;BME280;30041;48.300;16.352;2023-07-24T09:38:10;98957.38;;;25.39;52.19
43312;BME280;30041;48.300;16.352;2023-07-24T09:40:43;98943.81;;;25.39;52.19
43312;BME280;30041;48.300;16.352;2023-07-24T09:43:21;98941.09;;;25.39;52.00
43312;BME280;30041;48.300;16.352;2023-07-24T09:45:48;98946.53;;;25.39;52.48
43312;BME280;30041;48.300;16.352;2023-07-24T09:48:15;98945.41;;;25.40;52.07
43312;BME280;30041;48.300;16.352;2023-07-24T09:50:41;98940.28;;;25.39;52.38
43312;BME280;30041;48.300;16.352;2023-07-24T09:53:12;98931.84;;;25.40;51.81
43312;BME280;30041;48.300;16.352;2023-07-24T09:55:47;98933.50;;;25.41;51.51
43312;BME280;30041;48.300;16.352;2023-07-24T09:58:15;98932.13;;;25.44;51.34
43312;BME280;30041;48.300;16.352;2023-07-24T10:00:41;98934.00;;;25.48;52.29
43312;BME280;30041;48.300;16.352;2023-07-24T10:03:08;98932.38;;;25.47;52.73
43312;BME280;30041;48.300;16.352;2023-07-24T10:05:34;98925.03;;;25.48;52.41
43312;BME280;30041;48.300;16.352;2023-07-24T10:08:01;98919.31;;;25.50;52.40
43312;BME280;30041;48.300;16.352;2023-07-24T10:10:27;98917.72;;;25.48;52.32
43312;BME280;30041;48.300;16.352;2023-07-24T10:12:53;98904.94;;;25.49;52.41
43312;BME280;30041;48.300;16.352;2023-07-24T10:15:19;98895.19;;;25.48;51.63
43312;BME280;30041;48.300;16.352;2023-07-24T10:17:44;98888.41;;;25.51;52.08
43312;BME280;30041;48.300;16.352;2023-07-24T10:20:11;98873.19;;;25.50;52.15
43312;BME280;30041;48.300;16.352;2023-07-24T10:22:41;98869.41;;;25.51;52.06
43312;BME280;30041;48.300;16.352;2023-07-24T10:25:07;98850.41;;;25.51;52.01
43312;BME280;30041;48.300;16.352;2023-07-24T10:27:36;98847.69;;;25.51;52.28
43312;BME280;30041;48.300;16.352;2023-07-24T10:30:02;98847.97;;;25.49;51.98
43312;BME280;30041;48.300;16.352;2023-07-24T10:32:28;98842.28;;;25.51;51.77
43312;BME280;30041;48.300;16.352;2023-07-24T10:34:58;98844.19;;;25.50;51.77
43312;BME280;30041;48.300;16.352;2023-07-24T10:37:33;98836.03;;;25.50;51.78
43312;BME280;30041;48.300;16.352;2023-07-24T10:39:59;98836.84;;;25.51;51.48
43312;BME280;30041;48.300;16.352;2023-07-24T10:42:24;98839.56;;;25.51;51.97
43312;BME280;30041;48.300;16.352;2023-07-24T10:44:50;98833.34;;;25.50;51.78
43312;BME280;30041;48.300;16.352;2023-07-24T10:47:15;98818.94;;;25.50;51.72
43312;BME280;30041;48.300;16.352;2023-07-24T10:49:48;98808.09;;;25.50;51.84
43312;BME280;30041;48.300;16.352;2023-07-24T10:52:14;98802.66;;;25.50;51.48
43312;BME280;30041;48.300;16.352;2023-07-24T10:54:39;98798.06;;;25.50;51.67
43312;BME280;30041;48.300;16.352;2023-07-24T10:57:05;98790.72;;;25.51;51.65
43312;BME280;30041;48.300;16.352;2023-07-24T10:59:38;98777.41;;;25.54;51.56
43312;BME280;30041;48.300;16.352;2023-07-24T11:02:04;98774.41;;;25.56;51.58
43312;BME280;30041;48.300;16.352;2023-07-24T11:04:30;98770.88;;;25.55;51.17
43312;BME280;30041;48.300;16.352;2023-07-24T11:06:55;98753.00;;;25.54;51.58
43312;BME280;30041;48.300;16.352;2023-07-24T11:09:21;98755.41;;;25.56;51.35
43312;BME280;30041;48.300;16.352;2023-07-24T11:11:46;98745.06;;;25.58;51.41
43312;BME280;30041;48.300;16.352;2023-07-24T11:14:13;98744.00;;;25.59;51.12
43312;BME280;30041;48.300;16.352;2023-07-24T11:16:50;98757.56;;;25.59;51.38
43312;BME280;30041;48.300;16.352;2023-07-24T11:19:23;98745.06;;;25.58;51.30
43312;BME280;30041;48.300;16.352;2023-07-24T11:21:49;98744.00;;;25.59;51.07
43312;BME280;30041;48.300;16.352;2023-07-24T11:24:17;98734.75;;;25.60;50.97
43312;BME280;30041;48.300;16.352;2023-07-24T11:26:43;98736.06;;;25.62;51.22
43312;BME280;30041;48.300;16.352;2023-07-24T11:29:12;98722.28;;;25.59;51.33
43312;BME280;30041;48.300;16.352;2023-07-24T11:31:38;98718.22;;;25.56;51.35
43312;BME280;30041;48.300;16.352;2023-07-24T11:34:04;98715.22;;;25.58;51.21
43312;BME280;30041;48.300;16.352;2023-07-24T11:36:30;98707.09;;;25.58;51.34
43312;BME280;30041;48.300;16.352;2023-07-24T11:38:56;98701.13;;;25.61;51.05
43312;BME280;30041;48.300;16.352;2023-07-24T11:41:21;98687.53;;;25.61;51.01
43312;BME280;30041;48.300;16.352;2023-07-24T11:43:48;98675.31;;;25.63;50.82
43312;BME280;30041;48.300;16.352;2023-07-24T11:46:27;98666.84;;;25.65;51.13
43312;BME280;30041;48.300;16.352;2023-07-24T11:48:53;98659.22;;;25.67;51.35
43312;BME280;30041;48.300;16.352;2023-07-24T11:51:19;98653.81;;;25.67;51.17
43312;BME280;30041;48.300;16.352;2023-07-24T11:53:44;98652.72;;;25.68;51.15
43312;BME280;30041;48.300;16.352;2023-07-24T11:56:14;98649.69;;;25.69;51.58
43312;BME280;30041;48.300;16.352;2023-07-24T11:58:40;98657.31;;;25.67;51.46
43312;BME280;30041;48.300;16.352;2023-07-24T12:01:05;98650.53;;;25.70;51.33
43312;BME280;30041;48.300;16.352;2023-07-24T12:03:31;98649.69;;;25.69;51.28
43312;BME280;30041;48.300;16.352;2023-07-24T12:05:57;98645.09;;;25.70;51.15
43312;BME280;30041;48.300;16.352;2023-07-24T12:08:31;98634.25;;;25.70;51.37
43312;BME280;30041;48.300;16.352;2023-07-24T12:10:57;98636.97;;;25.70;51.17
43312;BME280;30041;48.300;16.352;2023-07-24T12:13:23;98628.31;;;25.68;51.14
43312;BME280;30041;48.300;16.352;2023-07-24T12:15:48;98620.97;;;25.68;51.46
43312;BME280;30041;48.300;16.352;2023-07-24T12:18:15;98612.53;;;25.70;50.92
43312;BME280;30041;48.300;16.352;2023-07-24T12:20:40;98618.78;;;25.71;51.01
43312;BME280;30041;48.300;16.352;2023-07-24T12:23:05;98614.16;;;25.71;51.21
43312;BME280;30041;48.300;16.352;2023-07-24T12:25:31;98619.84;;;25.69;51.32
43312;BME280;30041;48.300;16.352;2023-07-24T12:27:56;98607.91;;;25.71;51.41
43312;BME280;30041;48.300;16.352;2023-07-24T12:30:22;98604.41;;;25.70;51.19
43312;BME280;30041;48.300;16.352;2023-07-24T12:32:47;98600.06;;;25.69;51.40
43312;BME280;30041;48.300;16.352;2023-07-24T12:35:13;98606.00;;;25.71;51.18
43312;BME280;30041;48.300;16.352;2023-07-24T12:37:38;98587.00;;;25.71;51.33
43312;BME280;30041;48.300;16.352;2023-07-24T12:40:05;98576.16;;;25.71;51.28
43312;BME280;30041;48.300;16.352;2023-07-24T12:42:30;98576.16;;;25.71;51.21
43312;BME280;30041;48.300;16.352;2023-07-24T12:44:56;98569.66;;;25.72;51.12
43312;BME280;30041;48.300;16.352;2023-07-24T12:47:21;98566.09;;;25.72;51.38